Home   Weather   Malta   Valletta   Past weeks
Flag for Malta

Past Weather in Valletta, Malta — Yesterday and Last 2 Weeks

Currently: 81 °F. Clear. (Weather station: Luqa, Malta). See more current weather

Past Weather in Valletta — Graph

°F

Valletta Temperature Yesterday

Maximum temperature yesterday: 99 °F (at 11:45 am)
Minimum temperature yesterday: 77 °F (at 6:45 am)
Average temperature yesterday: 88 °F

High & Low Weather Summary for the Past Weeks

 TemperatureHumidityPressure
High99 °F (Aug 17, 11:45 am)100% (Aug 17, 1:15 am)30.01 "Hg (Aug 17, 1:15 am)
Low73 °F (Aug 12, 6:15 am)26% (Aug 6, 2:45 pm)29.80 "Hg (Aug 14, 3:15 pm)
Average84 °F70%29.92 "Hg
* Reported Aug 3 3:45 am — Aug 18 3:15 am, Valletta. Weather by CustomWeather, © 2022

Note: Actual official high and low records may vary slightly from our data, if they occured in-between our weather recording intervals... More about our weather records

Valletta Weather History for the Previous 24 Hours

Scroll right to see more
 ConditionsComfort  
Time TempWeatherWind HumidityBarometerVisibility
3:15 am
Thu, Aug 18
82 °FClear.8 mph89%29.89 "Hg10 mi
1:15 am82 °FClear.10 mph89%29.92 "Hg10 mi
12:45 am82 °FClear.9 mph89%29.92 "Hg10 mi
12:15 am82 °FClear.9 mph89%29.92 "Hg10 mi
11:45 pm
Wed, Aug 17
84 °FClear.8 mph84%29.92 "Hg10 mi
10:45 pm84 °FClear.8 mph89%29.92 "Hg10 mi
10:15 pm84 °FClear.9 mph89%29.92 "Hg10 mi
9:45 pm84 °FClear.9 mph89%29.92 "Hg10 mi
9:15 pm84 °FClear.8 mph89%29.92 "Hg10 mi
8:45 pm86 °FClear.7 mph79%29.92 "Hg10 mi
8:15 pm86 °FClear.9 mph79%29.92 "Hg10 mi
7:45 pm88 °FSunny.9 mph75%29.89 "Hg10 mi
7:15 pm90 °FSunny.7 mph63%29.92 "Hg10 mi
6:45 pm90 °FPassing clouds.7 mph67%29.92 "HgN/A
6:15 pm91 °FPassing clouds.8 mph63%29.92 "HgN/A
5:45 pm93 °FPassing clouds.7 mph59%29.92 "HgN/A
5:15 pm97 °FSunny.5 mph47%29.92 "Hg10 mi
4:45 pm97 °FPassing clouds.6 mph44%29.92 "HgN/A
4:15 pm97 °FPassing clouds.7 mph47%29.92 "HgN/A
3:45 pm99 °FPassing clouds.6 mph44%29.92 "HgN/A
3:15 pm99 °FPassing clouds.7 mph42%29.92 "HgN/A
1:45 pm99 °FSunny.6 mph39%29.92 "Hg10 mi
1:15 pm99 °FSunny.5 mph47%29.92 "Hg10 mi
12:15 pm97 °FPassing clouds.8 mph53%29.95 "HgN/A
11:45 am99 °FPassing clouds.6 mph31%29.95 "HgN/A
10:45 am93 °FPassing clouds.6 mph49%29.95 "HgN/A
10:15 am91 °FPassing clouds.8 mph56%29.95 "HgN/A
9:45 am90 °FPassing clouds.6 mph59%29.95 "HgN/A
9:15 am88 °FPassing clouds.5 mph62%29.95 "HgN/A
8:45 am86 °FSunny.2 mph70%29.95 "Hg10 mi
8:15 am82 °FSunny.2 mph84%29.95 "Hg10 mi
7:15 am79 °FSunny.1 mph94%29.92 "Hg10 mi
6:45 am77 °FPassing clouds.3 mph94%29.92 "HgN/A
6:15 am79 °FPassing clouds.3 mph100%29.92 "HgN/A
5:45 am81 °FPassing clouds.3 mph94%29.92 "HgN/A
5:15 am81 °FPassing clouds.6 mph100%29.92 "HgN/A
4:45 am81 °FPassing clouds.5 mph100%29.92 "HgN/A
4:15 am81 °FWarm.3 mph100%29.92 "Hg6 mi
Weather by CustomWeather, © 2022

See weather overview